首页
METAR-TAF:

METAR-TAF

机场 :

锡根, 德国

纬度: 50-42-28N, 经度: 008-04-59E, 海拔: 602米

当前天气观测

该预报发布于10小时和25分钟前的15:50 UTC
风速10节,风向
温度 3°C
湿度 100%
气压 1004 hPa
能見度: 1300
散云层高于100英尺
阴天层高于200英尺
小雨, 碎片雾

METAR: EDGS 171550Z 36010KT 1300 R31/1500N -RA BCFG SCT001 OVC002 03/03 Q1004

时间: 03:15 (02:15 UTC)

预报

该预报发布于12小时和15分钟前的14:00 UTC
预报有效从17日的 15点(UTC)到 17日的 24点(UTC)
风速11节,风向北转东北
能見度: 4000
散云层高于900英尺
多云层高于1300英尺
轻雾
短暂存在
从 17日的 15点(UTC)到 17日的 19点(UTC)
风速15节,风向,有时为25节阵风
成为
从 17日的 15点(UTC)到 17日的 18点(UTC)
能見度: 2000
阴天层高于400英尺
小雨
成为
从 17日的 18点(UTC)到 17日的 20点(UTC)
能見度: 0400
阴天层高于100英尺

TAF: EDGS 171400Z 1715/1724 02011KT 4000 BR SCT009 BKN013 TEMPO 1715/1719 36015G25KT RA BECMG 1715/1718 2000 -RA OVC004 BECMG 1718/1720 0400 FG OVC001

超过4000个机场的气象观测和天气预报(METAR&TAF报告)。

可查询的气象台以黄色和红色小点在地图上表示。

将鼠标移到小点上方,可查看气象台名称。

然后点击查看天气观测和预报。

如需切换地图:点击带黑十字的绿色按钮放大地图;点击带横线的绿色按钮缩小地图;或者点击绿色箭头查看邻近地区的地图。


METAR-TAF: